createdAt,value
2023-06-14T00:01:04.529Z,14.21
2023-06-14T00:03:33.354Z,14.21
2023-06-14T00:05:59.909Z,14.11
2023-06-14T00:08:26.840Z,14.04
2023-06-14T00:10:53.523Z,14.02
2023-06-14T00:13:20.047Z,13.95
2023-06-14T00:15:47.793Z,13.91
2023-06-14T00:18:14.438Z,13.91
2023-06-14T00:20:42.827Z,13.85
2023-06-14T00:23:09.622Z,13.82
2023-06-14T00:25:36.229Z,13.78
2023-06-14T00:28:03.615Z,13.73
2023-06-14T00:30:31.980Z,13.68
2023-06-14T00:32:59.121Z,13.62
2023-06-14T00:35:26.471Z,13.62
2023-06-14T00:37:53.405Z,13.59
2023-06-14T00:40:19.980Z,13.55
2023-06-14T00:42:46.541Z,13.52
2023-06-14T00:45:13.649Z,13.48
2023-06-14T00:47:42.928Z,13.41
2023-06-14T00:50:10.323Z,13.43
2023-06-14T00:52:37.385Z,13.34
2023-06-14T00:55:04.594Z,13.32
2023-06-14T00:57:31.251Z,13.27
2023-06-14T00:59:58.448Z,13.28
2023-06-14T01:02:28.592Z,13.23
2023-06-14T01:04:55.329Z,13.20
2023-06-14T01:07:58.301Z,13.12
2023-06-14T01:10:42.378Z,13.05
2023-06-14T01:13:24.837Z,12.98
2023-06-14T01:15:52.110Z,12.99
2023-06-14T01:18:19.430Z,12.90
2023-06-14T01:20:50.845Z,12.91
2023-06-14T01:23:18.772Z,12.82
2023-06-14T01:25:45.607Z,12.81
2023-06-14T01:28:13.822Z,12.81
2023-06-14T01:30:46.595Z,12.77
2023-06-14T01:33:19.070Z,12.83
2023-06-14T01:35:53.125Z,12.86
2023-06-14T01:38:25.647Z,12.79
2023-06-14T01:40:54.656Z,12.72
2023-06-14T01:43:21.861Z,12.67
2023-06-14T01:45:51.506Z,12.61
2023-06-14T01:48:18.122Z,12.53
2023-06-14T01:50:44.605Z,12.54
2023-06-14T01:53:11.864Z,12.46
2023-06-14T01:55:39.660Z,12.41
2023-06-14T01:58:06.595Z,12.39
2023-06-14T02:00:33.939Z,12.29
2023-06-14T02:03:01.104Z,12.22
2023-06-14T02:05:27.955Z,12.22
2023-06-14T02:07:54.689Z,12.17
2023-06-14T02:10:21.840Z,12.14
2023-06-14T02:12:49.638Z,12.11
2023-06-14T02:15:20.469Z,12.05
2023-06-14T02:17:53.409Z,12.04
2023-06-14T02:20:20.028Z,12.02
2023-06-14T02:22:46.665Z,11.98
2023-06-14T02:25:13.428Z,11.99
2023-06-14T02:27:39.937Z,11.92
2023-06-14T02:30:07.055Z,11.82
2023-06-14T02:32:36.551Z,11.79
2023-06-14T02:35:04.670Z,11.71
2023-06-14T02:37:31.520Z,11.65
2023-06-14T02:39:58.147Z,11.55
2023-06-14T02:42:24.812Z,11.50
2023-06-14T02:44:52.260Z,11.49
2023-06-14T02:47:19.756Z,11.49
2023-06-14T02:49:49.670Z,11.45
2023-06-14T02:52:16.503Z,11.43
2023-06-14T02:54:43.172Z,11.42
2023-06-14T02:57:09.801Z,11.43
2023-06-14T02:59:36.422Z,11.44
2023-06-14T03:02:04.021Z,11.41
2023-06-14T03:04:30.523Z,11.37
2023-06-14T03:06:57.399Z,11.39
2023-06-14T03:09:23.902Z,11.33
2023-06-14T03:11:50.488Z,11.25
2023-06-14T03:14:18.377Z,11.22
2023-06-14T03:16:45.220Z,11.20
2023-06-14T03:19:12.461Z,11.27
2023-06-14T03:21:39.928Z,11.22
2023-06-14T03:24:06.874Z,11.13
2023-06-14T03:26:35.488Z,11.20
2023-06-14T03:29:02.160Z,11.23
2023-06-14T03:31:33.684Z,11.17
2023-06-14T03:34:00.879Z,11.16
2023-06-14T03:36:27.454Z,11.16
2023-06-14T03:38:53.903Z,11.26
2023-06-14T03:41:20.444Z,11.16
2023-06-14T03:43:46.868Z,11.19
2023-06-14T03:46:13.328Z,11.16
2023-06-14T03:48:39.973Z,11.15
2023-06-14T03:51:06.632Z,11.13
2023-06-14T03:53:33.134Z,11.21
2023-06-14T03:56:01.243Z,11.21
2023-06-14T03:58:27.791Z,11.23
2023-06-14T04:00:54.534Z,11.22
2023-06-14T04:03:26.191Z,11.28
2023-06-14T04:05:57.738Z,11.28
2023-06-14T04:08:25.731Z,11.26
2023-06-14T04:10:52.554Z,11.28
2023-06-14T04:13:18.991Z,11.25
2023-06-14T04:15:46.959Z,11.29
2023-06-14T04:18:14.583Z,11.33
2023-06-14T04:20:42.375Z,11.35
2023-06-14T04:23:18.981Z,11.39
2023-06-14T04:25:49.890Z,11.42
2023-06-14T04:28:16.809Z,11.42
2023-06-14T04:30:44.184Z,11.35
2023-06-14T04:33:11.026Z,11.34
2023-06-14T04:35:38.294Z,11.31
2023-06-14T04:38:10.816Z,11.29
2023-06-14T04:40:43.680Z,11.35
2023-06-14T04:43:13.881Z,11.35
2023-06-14T04:45:41.121Z,11.33
2023-06-14T04:48:07.861Z,11.38
2023-06-14T04:50:34.435Z,11.41
2023-06-14T04:53:00.980Z,11.49
2023-06-14T04:55:27.816Z,11.60
2023-06-14T04:57:54.454Z,11.68
2023-06-14T05:00:24.501Z,11.79
2023-06-14T05:02:54.189Z,11.86
2023-06-14T05:05:21.011Z,11.93
2023-06-14T05:07:47.693Z,12.02
2023-06-14T05:10:14.337Z,12.07
2023-06-14T05:12:40.896Z,12.10
2023-06-14T05:15:09.847Z,12.12
2023-06-14T05:17:37.171Z,12.18
2023-06-14T05:20:04.535Z,12.27
2023-06-14T05:22:31.210Z,12.40
2023-06-14T05:24:57.770Z,12.56
2023-06-14T05:27:25.917Z,12.69
2023-06-14T05:29:56.652Z,12.75
2023-06-14T05:32:23.214Z,12.90
2023-06-14T05:34:49.821Z,13.01
2023-06-14T05:37:16.597Z,13.19
2023-06-14T05:39:43.055Z,13.29
2023-06-14T05:42:09.571Z,13.55
2023-06-14T05:44:36.254Z,13.60
2023-06-14T05:47:03.154Z,13.72
2023-06-14T05:49:29.746Z,13.86
2023-06-14T05:52:04.277Z,13.95
2023-06-14T05:54:32.086Z,14.10
2023-06-14T05:57:04.460Z,14.29
2023-06-14T05:59:30.963Z,14.44
2023-06-14T06:01:57.415Z,14.55
2023-06-14T06:04:24.821Z,14.70
2023-06-14T06:06:51.414Z,14.78
2023-06-14T06:09:17.998Z,14.94
2023-06-14T06:11:52.629Z,15.08
2023-06-14T06:14:19.979Z,15.19
2023-06-14T06:16:46.602Z,15.28
2023-06-14T06:19:13.263Z,15.43
2023-06-14T06:21:39.730Z,15.57
2023-06-14T06:24:06.945Z,15.74
2023-06-14T06:26:33.610Z,15.89
2023-06-14T06:29:00.368Z,16.06
2023-06-14T06:31:28.686Z,16.23
2023-06-14T06:33:56.778Z,16.44
2023-06-14T06:36:23.698Z,16.57
2023-06-14T06:38:50.348Z,16.72
2023-06-14T06:41:16.935Z,16.90
2023-06-14T06:43:43.963Z,17.03
2023-06-14T06:46:10.495Z,17.13
2023-06-14T06:48:37.000Z,17.32
2023-06-14T06:51:03.649Z,17.47
2023-06-14T06:53:39.232Z,17.58
2023-06-14T06:56:08.282Z,17.73
2023-06-14T06:58:34.860Z,17.77
2023-06-14T07:01:01.485Z,17.60
2023-06-14T07:03:28.009Z,17.65
2023-06-14T07:05:54.659Z,17.72
2023-06-14T07:08:21.301Z,17.93
2023-06-14T07:10:47.746Z,18.13
2023-06-14T07:13:14.922Z,18.25
2023-06-14T07:15:41.363Z,18.36
2023-06-14T07:18:08.083Z,18.44
2023-06-14T07:20:34.684Z,18.45
2023-06-14T07:23:01.372Z,18.43
2023-06-14T07:25:28.132Z,18.44
2023-06-14T07:27:54.581Z,18.52
2023-06-14T07:30:21.212Z,18.67
2023-06-14T07:32:47.852Z,18.61
2023-06-14T07:35:14.761Z,18.61
2023-06-14T07:37:41.440Z,18.58
2023-06-14T07:40:09.060Z,18.59
2023-06-14T07:42:36.840Z,18.65
2023-06-14T07:45:04.736Z,18.61
2023-06-14T07:47:31.299Z,18.63
2023-06-14T07:49:57.894Z,18.66
2023-06-14T07:52:24.494Z,18.57
2023-06-14T07:54:51.119Z,18.55
2023-06-14T07:57:17.638Z,18.69
2023-06-14T07:59:44.058Z,18.74
2023-06-14T08:02:10.645Z,18.87
2023-06-14T08:04:37.284Z,19.12
2023-06-14T08:07:05.519Z,18.98
2023-06-14T08:09:33.549Z,18.84
2023-06-14T08:12:00.166Z,18.83
2023-06-14T08:14:26.913Z,18.97
2023-06-14T08:16:53.617Z,19.06
2023-06-14T08:19:20.958Z,19.16
2023-06-14T08:21:48.408Z,19.20
2023-06-14T08:24:15.160Z,19.28
2023-06-14T08:26:42.446Z,19.26
2023-06-14T08:29:09.062Z,19.31
2023-06-14T08:31:35.974Z,19.33
2023-06-14T08:34:04.150Z,19.37
2023-06-14T08:36:31.954Z,19.52
2023-06-14T08:38:58.415Z,19.44
2023-06-14T08:41:28.254Z,19.44
2023-06-14T08:43:54.755Z,19.72
2023-06-14T08:46:21.403Z,19.94
2023-06-14T08:48:50.700Z,20.21
2023-06-14T08:51:22.887Z,20.47
2023-06-14T08:53:58.875Z,20.55
2023-06-14T08:56:30.361Z,20.87
2023-06-14T08:59:02.315Z,20.95
2023-06-14T09:01:28.833Z,21.02
2023-06-14T09:03:58.776Z,20.95
2023-06-14T09:06:25.868Z,21.10
2023-06-14T09:08:53.027Z,21.18
2023-06-14T09:11:20.263Z,21.30
2023-06-14T09:13:47.734Z,21.29
2023-06-14T09:16:14.184Z,21.22
2023-06-14T09:18:44.618Z,21.23
2023-06-14T09:21:12.694Z,21.16
2023-06-14T09:23:41.854Z,21.18
2023-06-14T09:26:12.231Z,21.38
2023-06-14T09:28:49.038Z,21.52
2023-06-14T09:31:17.838Z,21.67
2023-06-14T09:33:49.887Z,21.70
2023-06-14T09:36:18.461Z,21.82
2023-06-14T09:38:59.320Z,21.80
2023-06-14T09:41:34.049Z,22.03
2023-06-14T09:44:04.863Z,22.03
2023-06-14T09:46:35.652Z,22.08
2023-06-14T09:49:03.608Z,22.16
2023-06-14T09:51:34.103Z,22.21
2023-06-14T09:54:05.529Z,22.46
2023-06-14T09:56:36.465Z,22.45
2023-06-14T09:59:08.799Z,22.35
2023-06-14T10:01:36.894Z,22.56
2023-06-14T10:04:09.819Z,22.53
2023-06-14T10:06:40.309Z,22.46
2023-06-14T10:09:09.602Z,22.35
2023-06-14T10:11:37.056Z,22.18
2023-06-14T10:14:06.677Z,22.23
2023-06-14T10:16:52.300Z,22.30
2023-06-14T10:19:35.518Z,22.27
2023-06-14T10:22:08.395Z,22.36
2023-06-14T10:24:41.872Z,22.54
2023-06-14T10:27:12.261Z,22.61
2023-06-14T10:29:54.009Z,22.80
2023-06-14T10:32:21.895Z,23.02
2023-06-14T10:34:57.107Z,23.03
2023-06-14T10:37:23.950Z,22.84
2023-06-14T10:39:54.544Z,22.66
2023-06-14T10:42:21.185Z,22.62
2023-06-14T10:45:06.619Z,22.66
2023-06-14T10:47:36.765Z,22.52
2023-06-14T10:50:03.578Z,22.50
2023-06-14T10:52:36.756Z,22.37
2023-06-14T10:55:17.847Z,22.36
2023-06-14T10:57:57.060Z,22.23
2023-06-14T11:00:27.127Z,22.04
2023-06-14T11:03:06.794Z,21.77
2023-06-14T11:05:50.944Z,21.70
2023-06-14T11:08:23.424Z,21.71
2023-06-14T11:10:51.412Z,21.52
2023-06-14T11:13:18.653Z,21.56
2023-06-14T11:15:52.760Z,21.61
2023-06-14T11:18:19.648Z,21.62
2023-06-14T11:20:48.067Z,21.66
2023-06-14T11:23:14.934Z,21.61
2023-06-14T11:25:41.430Z,21.63
2023-06-14T11:28:08.221Z,21.87
2023-06-14T11:30:35.021Z,22.01
2023-06-14T11:33:01.733Z,22.12
2023-06-14T11:35:28.577Z,22.27
2023-06-14T11:37:57.780Z,22.28
2023-06-14T11:40:28.907Z,22.29
2023-06-14T11:43:03.089Z,22.33
2023-06-14T11:45:31.067Z,22.53
2023-06-14T11:47:59.026Z,22.71
2023-06-14T11:50:27.012Z,22.76
2023-06-14T11:52:56.098Z,22.79
2023-06-14T11:55:23.837Z,22.88
2023-06-14T11:57:53.205Z,22.99
2023-06-14T12:00:22.354Z,22.72
2023-06-14T12:02:57.132Z,22.85
2023-06-14T12:05:25.517Z,22.88
2023-06-14T12:08:01.322Z,22.81
2023-06-14T12:10:29.284Z,22.76
2023-06-14T12:13:00.401Z,22.94
2023-06-14T12:15:30.587Z,23.07
2023-06-14T12:17:58.458Z,23.26
2023-06-14T12:20:30.767Z,23.38
2023-06-14T12:22:59.513Z,23.53
2023-06-14T12:25:35.230Z,23.74
2023-06-14T12:28:09.957Z,23.66
2023-06-14T12:30:38.149Z,23.83
2023-06-14T12:33:06.732Z,24.13
2023-06-14T12:35:33.439Z,24.40
2023-06-14T12:37:59.922Z,24.56
2023-06-14T12:40:27.544Z,24.67
2023-06-14T12:42:53.990Z,24.60
2023-06-14T12:45:20.431Z,24.48
2023-06-14T12:47:47.087Z,24.09
2023-06-14T12:50:13.844Z,23.97
2023-06-14T12:52:40.461Z,23.95
2023-06-14T12:55:07.729Z,23.83
2023-06-14T12:57:36.199Z,23.78
2023-06-14T13:00:02.831Z,23.66
2023-06-14T13:02:30.083Z,23.59
2023-06-14T13:04:58.079Z,23.55
2023-06-14T13:07:24.710Z,23.43
2023-06-14T13:09:51.367Z,23.41
2023-06-14T13:12:17.807Z,23.37
2023-06-14T13:14:44.254Z,23.29
2023-06-14T13:17:11.416Z,23.37
2023-06-14T13:22:04.797Z,23.34
2023-06-14T13:24:31.974Z,23.25
2023-06-14T13:26:58.824Z,23.20
2023-06-14T13:29:25.867Z,23.10
2023-06-14T13:31:52.576Z,23.05
2023-06-14T13:34:19.243Z,23.02
2023-06-14T13:36:45.775Z,23.06
2023-06-14T13:39:13.077Z,23.31
2023-06-14T13:41:39.533Z,23.57
2023-06-14T13:44:06.129Z,23.63
2023-06-14T13:46:32.768Z,23.79
2023-06-14T13:48:59.271Z,23.74
2023-06-14T13:51:27.610Z,23.67
2023-06-14T13:53:55.340Z,23.69
2023-06-14T13:56:23.656Z,23.89
2023-06-14T13:58:50.087Z,23.93
2023-06-14T14:01:16.928Z,24.11
2023-06-14T14:03:43.478Z,24.21
2023-06-14T14:06:10.832Z,24.30
2023-06-14T14:08:37.545Z,24.54
2023-06-14T14:11:04.242Z,24.62
2023-06-14T14:13:30.806Z,24.53
2023-06-14T14:15:57.612Z,24.65
2023-06-14T14:18:24.272Z,24.73
2023-06-14T14:20:51.097Z,24.72
2023-06-14T14:23:17.960Z,24.80
2023-06-14T14:25:44.595Z,24.87
2023-06-14T14:28:12.281Z,24.90
2023-06-14T14:30:41.176Z,24.95
2023-06-14T14:33:08.028Z,25.14
2023-06-14T14:35:34.762Z,25.03
2023-06-14T14:38:01.471Z,25.19
2023-06-14T14:40:27.946Z,24.98
2023-06-14T14:42:54.586Z,24.93
2023-06-14T14:45:21.027Z,24.77
2023-06-14T14:47:47.512Z,24.62
2023-06-14T14:50:14.373Z,24.62
2023-06-14T14:52:41.166Z,24.48
2023-06-14T14:55:08.314Z,24.38
2023-06-14T14:57:34.787Z,24.27
2023-06-14T15:00:01.200Z,24.22
2023-06-14T15:02:27.651Z,23.99
2023-06-14T15:04:55.422Z,23.77
2023-06-14T15:07:21.937Z,23.71
2023-06-14T15:09:51.569Z,23.64
2023-06-14T15:12:18.102Z,23.41
2023-06-14T15:14:44.727Z,23.31
2023-06-14T15:17:11.298Z,23.23
2023-06-14T15:19:37.778Z,23.15
2023-06-14T15:22:04.484Z,23.06
2023-06-14T15:24:43.091Z,23.12
2023-06-14T15:27:13.278Z,23.32
2023-06-14T15:29:42.869Z,23.47
2023-06-14T15:34:36.371Z,23.40
2023-06-14T15:37:03.601Z,23.34
2023-06-14T15:39:32.881Z,23.19
2023-06-14T15:42:00.344Z,23.17
2023-06-14T15:44:27.530Z,23.12
2023-06-14T15:46:54.036Z,23.06
2023-06-14T15:49:20.595Z,23.01
2023-06-14T15:51:47.022Z,22.90
2023-06-14T15:54:13.514Z,22.83
2023-06-14T15:56:39.920Z,22.80
2023-06-14T15:59:08.297Z,22.73
2023-06-14T16:01:34.864Z,22.77
2023-06-14T16:04:01.533Z,22.66
2023-06-14T16:06:28.094Z,22.67
2023-06-14T16:08:54.675Z,22.64
2023-06-14T16:11:21.115Z,22.57
2023-06-14T16:13:47.776Z,22.61
2023-06-14T16:16:14.259Z,22.57
2023-06-14T16:18:40.946Z,22.51
2023-06-14T16:21:10.132Z,22.47
2023-06-14T16:23:37.073Z,22.40
2023-06-14T16:26:03.824Z,22.30
2023-06-14T16:28:32.833Z,22.23
2023-06-14T16:30:59.296Z,22.16
2023-06-14T16:33:25.908Z,22.01
2023-06-14T16:35:52.550Z,21.98
2023-06-14T16:38:20.127Z,21.88
2023-06-14T16:40:46.670Z,21.75
2023-06-14T16:43:13.099Z,21.72
2023-06-14T16:45:39.842Z,21.53
2023-06-14T16:48:06.708Z,21.46
2023-06-14T16:50:35.429Z,21.41
2023-06-14T16:53:03.456Z,21.40
2023-06-14T16:55:30.010Z,21.40
2023-06-14T16:57:56.469Z,21.44
2023-06-14T17:00:23.002Z,21.42
2023-06-14T17:02:49.780Z,21.43
2023-06-14T17:05:16.575Z,21.44
2023-06-14T17:07:43.060Z,21.46
2023-06-14T17:10:09.846Z,21.46
2023-06-14T17:12:36.417Z,21.52
2023-06-14T17:15:04.339Z,21.54
2023-06-14T17:17:30.880Z,21.50
2023-06-14T17:19:57.384Z,21.52
2023-06-14T17:22:23.806Z,21.48
2023-06-14T17:24:50.460Z,21.39
2023-06-14T17:27:17.304Z,21.38
2023-06-14T17:29:43.836Z,21.36
2023-06-14T17:32:10.382Z,21.33
2023-06-14T17:34:37.007Z,21.28
2023-06-14T17:37:04.203Z,21.21
2023-06-14T17:39:30.651Z,21.17
2023-06-14T17:41:57.077Z,21.12
2023-06-14T17:44:23.525Z,21.03
2023-06-14T17:46:50.041Z,20.97
2023-06-14T17:49:16.470Z,20.95
2023-06-14T17:51:42.972Z,20.91
2023-06-14T17:54:09.554Z,20.90
2023-06-14T17:56:36.010Z,20.87
2023-06-14T17:59:02.705Z,20.84
2023-06-14T18:01:29.288Z,20.78
2023-06-14T18:03:55.822Z,20.69
2023-06-14T18:06:22.318Z,20.68
2023-06-14T18:08:49.294Z,20.66
2023-06-14T18:11:16.591Z,20.60
2023-06-14T18:13:44.622Z,20.51
2023-06-14T18:16:14.807Z,20.51
2023-06-14T18:18:42.296Z,20.47
2023-06-14T18:21:08.847Z,20.42
2023-06-14T18:23:35.753Z,20.44
2023-06-14T18:26:02.220Z,20.36
2023-06-14T18:28:28.799Z,20.28
2023-06-14T18:30:55.314Z,20.29
2023-06-14T18:33:21.968Z,20.25
2023-06-14T18:35:48.596Z,20.17
2023-06-14T18:38:15.141Z,20.08
2023-06-14T18:40:42.797Z,20.02
2023-06-14T18:43:11.413Z,19.93
2023-06-14T18:45:38.885Z,19.83
2023-06-14T18:48:05.791Z,19.79
2023-06-14T18:50:32.422Z,19.67
2023-06-14T18:52:59.050Z,19.57
2023-06-14T18:55:25.759Z,19.50
2023-06-14T18:57:52.355Z,19.44
2023-06-14T19:00:19.364Z,19.38
2023-06-14T19:02:47.122Z,19.27
2023-06-14T19:05:13.667Z,19.22
2023-06-14T19:07:40.240Z,19.16
2023-06-14T19:10:07.210Z,19.11
2023-06-14T19:12:33.672Z,19.07
2023-06-14T19:15:00.865Z,19.00
2023-06-14T19:17:28.883Z,18.93
2023-06-14T19:19:55.689Z,18.90
2023-06-14T19:22:22.200Z,18.81
2023-06-14T19:24:48.675Z,18.83
2023-06-14T19:27:15.497Z,18.73
2023-06-14T19:29:41.944Z,18.67
2023-06-14T19:32:08.693Z,18.63
2023-06-14T19:34:35.280Z,18.59
2023-06-14T19:37:03.035Z,18.51
2023-06-14T19:39:29.617Z,18.44
2023-06-14T19:41:56.110Z,18.41
2023-06-14T19:44:22.654Z,18.33
2023-06-14T19:46:49.138Z,18.27
2023-06-14T19:49:15.679Z,18.19
2023-06-14T19:51:42.135Z,18.14
2023-06-14T19:54:08.922Z,18.09
2023-06-14T19:56:35.433Z,18.04
2023-06-14T19:59:02.983Z,17.96
2023-06-14T20:01:29.539Z,17.87
2023-06-14T20:03:56.238Z,17.84
2023-06-14T20:06:23.029Z,17.72
2023-06-14T20:08:49.683Z,17.67
2023-06-14T20:11:17.326Z,17.63
2023-06-14T20:13:46.312Z,17.56
2023-06-14T20:16:13.435Z,17.50
2023-06-14T20:18:40.115Z,17.47
2023-06-14T20:21:06.915Z,17.37
2023-06-14T20:23:33.538Z,17.41
2023-06-14T20:26:01.428Z,17.36
2023-06-14T20:28:28.438Z,17.36
2023-06-14T20:30:55.186Z,17.30
2023-06-14T20:33:22.770Z,17.25
2023-06-14T20:35:49.792Z,17.23
2023-06-14T20:38:16.458Z,17.14
2023-06-14T20:40:43.095Z,17.12
2023-06-14T20:43:13.118Z,17.13
2023-06-14T20:45:40.616Z,17.06
2023-06-14T20:48:07.370Z,16.95
2023-06-14T20:50:34.059Z,16.99
2023-06-14T20:53:00.819Z,16.90
2023-06-14T20:55:29.136Z,16.91
2023-06-14T20:57:56.967Z,16.85
2023-06-14T21:00:23.519Z,16.85
2023-06-14T21:02:50.433Z,16.82
2023-06-14T21:05:18.133Z,16.78
2023-06-14T21:07:44.800Z,16.68
2023-06-14T21:10:11.622Z,16.69
2023-06-14T21:12:38.087Z,16.64
2023-06-14T21:15:05.538Z,16.60
2023-06-14T21:17:33.129Z,16.57
2023-06-14T21:19:59.731Z,16.54
2023-06-14T21:22:26.697Z,16.49
2023-06-14T21:24:53.231Z,16.42
2023-06-14T21:27:19.773Z,16.41
2023-06-14T21:29:46.527Z,16.35
2023-06-14T21:32:13.162Z,16.26
2023-06-14T21:34:41.925Z,16.21
2023-06-14T21:37:10.429Z,16.08
2023-06-14T21:39:39.241Z,16.09
2023-06-14T21:42:10.063Z,16.01
2023-06-14T21:44:41.640Z,16.00
2023-06-14T21:47:09.692Z,15.94
2023-06-14T21:49:36.239Z,15.91
2023-06-14T21:52:02.886Z,15.81
2023-06-14T21:54:29.535Z,15.87
2023-06-14T21:56:56.110Z,15.83
2023-06-14T21:59:22.839Z,15.80
2023-06-14T22:01:49.341Z,15.76
2023-06-14T22:04:16.025Z,15.74
2023-06-14T22:06:44.989Z,15.70
2023-06-14T22:09:15.842Z,15.59
2023-06-14T22:11:44.758Z,15.52
2023-06-14T22:14:13.106Z,15.54
2023-06-14T22:16:40.310Z,15.44
2023-06-14T22:19:07.473Z,15.44
2023-06-14T22:21:35.394Z,15.34
2023-06-14T22:24:04.280Z,15.30
2023-06-14T22:26:40.459Z,15.28
2023-06-14T22:29:07.725Z,15.21
2023-06-14T22:31:38.136Z,15.15
2023-06-14T22:34:08.482Z,15.09
2023-06-14T22:36:35.038Z,15.01
2023-06-14T22:39:04.459Z,14.96
2023-06-14T22:41:34.251Z,14.82
2023-06-14T22:44:01.600Z,14.74
2023-06-14T22:46:28.926Z,14.66
2023-06-14T22:48:55.827Z,14.69
2023-06-14T22:51:23.081Z,14.66
2023-06-14T22:53:51.325Z,14.58
2023-06-14T22:56:19.449Z,14.62
2023-06-14T22:58:47.821Z,14.51
2023-06-14T23:01:18.982Z,14.50
2023-06-14T23:03:48.362Z,14.47
2023-06-14T23:06:25.930Z,14.48
2023-06-14T23:08:54.872Z,14.46
2023-06-14T23:11:22.910Z,14.44
2023-06-14T23:13:51.447Z,14.38
2023-06-14T23:16:19.049Z,14.39
2023-06-14T23:18:48.705Z,14.39
2023-06-14T23:21:19.612Z,14.33
2023-06-14T23:23:48.858Z,14.29
2023-06-14T23:26:16.364Z,14.31
2023-06-14T23:28:43.460Z,14.26
2023-06-14T23:31:10.378Z,14.20
2023-06-14T23:33:37.503Z,14.18
2023-06-14T23:36:07.744Z,14.15
2023-06-14T23:38:34.979Z,14.11
2023-06-14T23:41:02.743Z,14.04
2023-06-14T23:43:31.066Z,14.04
2023-06-14T23:45:58.702Z,13.95
2023-06-14T23:48:28.091Z,13.86
2023-06-14T23:50:55.838Z,13.77
2023-06-14T23:53:28.349Z,13.59
2023-06-14T23:55:54.835Z,13.57
2023-06-14T23:58:22.612Z,13.51
